Time;durP1;ratioP1;P1;durP2;ratioP2;P2;SDS_P1;SDS_P2;PMS_P1;PMS_P2;Temp;Humidity;BMP_temperature;BMP_pressure;BME280_temperature;BME280_humidity;BME280_pressure;Samples;Min_cycle;Max_cycle;Signal;HPM_P1;HPM_P2
2021/06/04 00:00:07;;;;;;;9.53;4.64;;;;;;;16.78;47.39;100363.95;363318;145;864914;-57
2021/06/04 00:01:13;;;;;;;10.92;5.03;;;;;;;16.77;47.42;100358.78;362585;145;867430;-57
2021/06/04 00:02:15;;;;;;;11.31;4.26;;;;;;;16.73;47.36;100357.99;362220;148;857692;-57
2021/06/04 00:03:19;;;;;;;10.57;4.62;;;;;;;16.69;48.04;100368.59;362854;144;859280;-57
2021/06/04 00:04:21;;;;;;;11.31;4.96;;;;;;;16.68;48.07;100367.72;362161;147;864957;-57
2021/06/04 00:05:26;;;;;;;8.62;4.87;;;;;;;16.68;48.12;100361.64;363696;146;857252;-56
2021/06/04 00:06:28;;;;;;;8.94;4.92;;;;;;;16.68;47.94;100364.27;363679;144;865969;-57
2021/06/04 00:07:30;;;;;;;8.33;4.62;;;;;;;16.68;47.88;100359.03;361807;145;857505;-56
2021/06/04 00:08:32;;;;;;;9.35;5.27;;;;;;;16.65;47.64;100355.60;364204;145;859015;-56
2021/06/04 00:09:33;;;;;;;13.30;5.24;;;;;;;16.63;47.71;100362.63;358642;146;865040;-57
2021/06/04 00:10:39;;;;;;;11.15;4.90;;;;;;;16.60;47.49;100362.71;355965;148;865037;-57
2021/06/04 00:11:43;;;;;;;9.66;5.27;;;;;;;16.59;47.77;100363.61;356926;147;857246;-56
2021/06/04 00:12:45;;;;;;;11.72;4.88;;;;;;;16.60;47.77;100362.71;358786;149;858018;-57
2021/06/04 00:13:52;;;;;;;12.59;6.39;;;;;;;16.61;47.77;100359.20;359117;148;858359;-57
2021/06/04 00:14:54;;;;;;;11.52;4.79;;;;;;;16.61;47.85;100359.20;358767;149;865049;-57
2021/06/04 00:16:11;;;;;;;12.36;5.32;;;;;;;16.61;47.78;100360.94;359250;150;857476;-56
2021/06/04 00:17:15;;;;;;;11.30;5.13;;;;;;;16.61;47.84;100358.32;358410;147;863970;-57
2021/06/04 00:18:17;;;;;;;9.12;5.05;;;;;;;16.60;47.97;100365.32;358874;148;858843;-57
2021/06/04 00:19:20;;;;;;;9.28;4.81;;;;;;;;;;357788;147;858153;-57
2021/06/04 00:20:24;;;;;;;8.01;4.35;;;;;;;;;;357691;148;860317;-57
2021/06/04 00:21:28;;;;;;;9.98;4.56;;;;;;;;;;358565;150;857209;-57
2021/06/04 00:22:29;;;;;;;8.58;5.00;;;;;;;;;;359197;147;858468;-57
2021/06/04 00:23:31;;;;;;;10.00;4.56;;;;;;;;;;356799;148;859128;-57
2021/06/04 00:24:35;;;;;;;11.00;5.08;;;;;;;;;;358077;148;865666;-57
2021/06/04 00:25:37;;;;;;;7.41;4.42;;;;;;;;;;358235;147;859014;-57
2021/06/04 00:26:41;;;;;;;10.79;5.37;;;;;;;;;;359835;147;858956;-57
2021/06/04 00:27:42;;;;;;;8.21;5.03;;;;;;;;;;360010;147;864971;-56
2021/06/04 00:28:44;;;;;;;9.49;4.53;;;;;;;;;;358219;149;858972;-57
2021/06/04 00:29:46;;;;;;;11.72;4.24;;;;;;;;;;359147;149;858799;-55
2021/06/04 00:30:48;;;;;;;11.98;4.73;;;;;;;;;;357593;148;858686;-57
2021/06/04 00:31:50;;;;;;;10.15;5.16;;;;;;;;;;358341;148;859834;-56
2021/06/04 00:32:52;;;;;;;8.98;4.81;;;;;;;;;;358084;148;857428;-57
2021/06/04 00:33:54;;;;;;;7.95;5.00;;;;;;;;;;358185;147;857320;-57
2021/06/04 00:34:56;;;;;;;9.04;5.04;;;;;;;;;;356376;148;857189;-57
2021/06/04 00:35:57;;;;;;;10.55;4.77;;;;;;;;;;357643;147;857324;-57
2021/06/04 00:36:59;;;;;;;9.21;5.06;;;;;;;;;;359442;147;857261;-57
2021/06/04 00:38:00;;;;;;;8.59;4.48;;;;;;;;;;355750;147;865052;-56
2021/06/04 00:39:03;;;;;;;7.93;5.09;;;;;;;;;;358843;147;857344;-56
2021/06/04 00:40:07;;;;;;;12.22;4.96;;;;;;;;;;358517;149;864992;-56
2021/06/04 00:41:10;;;;;;;8.07;5.04;;;;;;;;;;358252;147;857346;-57
2021/06/04 00:42:14;;;;;;;12.74;4.71;;;;;;;;;;358739;149;866716;-57
2021/06/04 00:43:15;;;;;;;12.73;5.43;;;;;;;;;;358760;149;857214;-56
2021/06/04 00:44:17;;;;;;;9.46;4.71;;;;;;;;;;358160;147;857263;-57
2021/06/04 00:45:21;;;;;;;8.67;5.01;;;;;;;;;;359060;147;857237;-57
2021/06/04 00:46:24;;;;;;;8.10;4.46;;;;;;;;;;355309;147;866848;-57
2021/06/04 00:47:26;;;;;;;10.72;5.33;;;;;;;;;;357304;148;858543;-56
2021/06/04 00:48:28;;;;;;;12.47;4.60;;;;;;;;;;359466;149;859432;-57
2021/06/04 00:49:29;;;;;;;14.96;5.52;;;;;;;;;;358778;147;865004;-57
2021/06/04 00:50:40;;;;;;;9.43;4.31;;;;;;;;;;360047;147;857242;-56
2021/06/04 00:51:43;;;;;;;8.46;4.58;;;;;;;;;;358786;147;857985;-56
2021/06/04 00:52:45;;;;;;;9.83;4.86;;;;;;;;;;352856;149;859632;-56
2021/06/04 00:53:47;;;;;;;7.74;4.19;;;;;;;;;;356405;151;857485;-56
2021/06/04 00:54:49;;;;;;;9.70;4.67;;;;;;;;;;356083;148;858465;-56
2021/06/04 00:55:51;;;;;;;12.47;4.84;;;;;;;;;;356630;151;859801;-56
2021/06/04 00:56:53;;;;;;;7.63;4.89;;;;;;;;;;350598;153;865629;-56
2021/06/04 00:57:56;;;;;;;7.01;4.56;;;;;;;;;;350522;151;857552;-56
2021/06/04 00:58:58;;;;;;;11.31;4.83;;;;;;;;;;352639;150;858461;-56
2021/06/04 01:00:03;;;;;;;8.88;4.66;;;;;;;;;;354580;148;866208;-56
2021/06/04 01:01:05;;;;;;;8.86;5.23;;;;;;;;;;357591;149;865364;-58
2021/06/04 01:02:08;;;;;;;11.20;4.64;;;;;;;;;;356502;150;860085;-57
2021/06/04 01:03:10;;;;;;;10.50;5.01;;;;;;;;;;356039;148;865214;-57
2021/06/04 01:04:14;;;;;;;7.51;4.11;;;;;;;;;;355876;151;857164;-57
2021/06/04 01:05:15;;;;;;;8.46;4.49;;;;;;;;;;357007;148;864800;-56
2021/06/04 01:06:33;;;;;;;11.66;4.41;;;;;;;;;;355742;149;857288;-57
2021/06/04 01:07:39;;;;;;;8.55;4.67;;;;;;;;;;356407;150;861123;-59
2021/06/04 01:08:46;;;;;;;7.14;4.52;;;;;;;;;;355021;148;857321;-56
2021/06/04 01:10:06;;;;;;;8.58;4.27;;;;;;;;;;356158;151;857285;-57
2021/06/04 01:11:26;;;;;;;8.76;4.59;;;;;;;;;;356314;148;859205;-56
2021/06/04 01:12:47;;;;;;;9.11;4.88;;;;;;;;;;355876;149;858865;-56
2021/06/04 01:13:48;;;;;;;;;;;;;;;;;;357500;148;864768;-56
2021/06/04 01:14:57;;;;;;;5.97;4.08;;;;;;;;;;345184;154;858301;-56
2021/06/04 01:16:04;;;;;;;7.85;4.23;;;;;;;;;;340179;154;858562;-57
2021/06/04 01:17:26;;;;;;;8.80;4.54;;;;;;;;;;341828;155;859631;-57
2021/06/04 01:18:39;;;;;;;14.79;4.12;;;;;;;;;;342888;156;858707;-57
2021/06/04 01:20:00;;;;;;;10.25;4.18;;;;;;;;;;339809;155;860021;-57
2021/06/04 01:21:04;;;;;;;7.92;4.36;;;;;;;;;;344332;156;859396;-57
2021/06/04 01:22:06;;;;;;;7.46;4.41;;;;;;;;;;342520;154;858389;-57
2021/06/04 01:23:16;;;;;;;6.87;4.16;;;;;;;;;;342897;154;859144;-57
2021/06/04 01:24:28;;;;;;;8.62;4.41;;;;;;;;;;350138;151;865953;-57
2021/06/04 01:25:49;;;;;;;11.09;4.43;;;;;;;;;;345221;154;859579;-56
2021/06/04 01:26:51;;;;;;;11.94;4.48;;;;;;;;;;347368;151;857676;-56
2021/06/04 01:27:53;;;;;;;9.69;4.48;;;;;;;;;;342508;156;857819;-56
2021/06/04 01:28:57;;;;;;;11.10;4.93;;;;;;;;;;344003;156;857317;-56
2021/06/04 01:30:00;;;;;;;8.26;4.45;;;;;;;;;;342642;154;858950;-56
2021/06/04 01:31:07;;;;;;;6.67;4.53;;;;;;;;;;340770;157;857396;-57
2021/06/04 01:32:10;;;;;;;6.21;4.47;;;;;;;;;;343170;154;857385;-56
2021/06/04 01:33:16;;;;;;;9.39;4.61;;;;;;;;;;343530;154;857354;-57
2021/06/04 01:34:22;;;;;;;6.54;4.08;;;;;;;;;;338575;156;857650;-56
2021/06/04 01:35:25;;;;;;;6.03;4.13;;;;;;;;;;341625;154;857808;-57
2021/06/04 01:36:29;;;;;;;7.58;4.19;;;;;;;;;;343238;156;858075;-56
2021/06/04 01:37:31;;;;;;;7.55;4.53;;;;;;;;;;344548;154;859411;-57
2021/06/04 01:38:34;;;;;;;7.56;4.17;;;;;;;;;;339807;156;857327;-57
2021/06/04 01:39:36;;;;;;;9.43;4.29;;;;;;;;;;330850;159;857370;-57
2021/06/04 01:40:40;;;;;;;8.99;4.80;;;;;;;;;;341339;156;857416;-57
2021/06/04 01:41:41;;;;;;;8.49;4.49;;;;;;;;;;343825;156;858919;-57
2021/06/04 01:42:44;;;;;;;7.62;4.42;;;;;;;;;;344115;156;865321;-56
2021/06/04 01:43:47;;;;;;;8.17;4.49;;;;;;;;;;348489;152;865678;-57
2021/06/04 01:44:50;;;;;;;11.99;4.17;;;;;;;;;;346552;154;857464;-56
2021/06/04 01:45:53;;;;;;;6.95;4.26;;;;;;;;;;350168;151;865562;-57
2021/06/04 01:46:59;;;;;;;9.83;4.28;;;;;;;;;;341006;154;857886;-56
2021/06/04 01:48:09;;;;;;;8.56;4.59;;;;;;;;;;341427;156;857247;-57
2021/06/04 01:49:12;;;;;;;7.80;4.18;;;;;;;;;;347365;151;864198;-56
2021/06/04 01:50:16;;;;;;;8.89;4.87;;;;;;;;;;347083;154;857700;-56
2021/06/04 01:51:20;;;;;;;7.68;4.23;;;;;;;;;;348693;153;864960;-56
2021/06/04 01:52:23;;;;;;;6.69;4.15;;;;;;;;;;350885;152;857548;-57
2021/06/04 01:53:29;;;;;;;6.85;5.01;;;;;;;;;;349987;152;865690;-56
2021/06/04 01:54:32;;;;;;;12.71;4.61;;;;;;;;;;358113;148;858369;-56
2021/06/04 01:55:34;;;;;;;7.63;4.26;;;;;;;;;;358453;148;859656;-55
2021/06/04 01:56:38;;;;;;;7.89;4.24;;;;;;;;;;358483;147;865264;-55
2021/06/04 01:57:45;;;;;;;10.02;4.45;;;;;;;;;;357557;148;857917;-57
2021/06/04 01:58:48;;;;;;;6.78;4.18;;;;;;;;;;358246;150;859427;-58
2021/06/04 01:59:52;;;;;;;9.90;4.52;;;;;;;;;;359936;147;858306;-57
2021/06/04 02:00:56;;;;;;;7.91;4.31;;;;;;;;;;357661;148;858231;-57
2021/06/04 02:01:57;;;;;;;11.97;5.01;;;;;;;;;;353853;148;857848;-57
2021/06/04 02:02:59;;;;;;;8.30;4.57;;;;;;;;;;357777;148;860246;-58
2021/06/04 02:04:02;;;;;;;7.70;4.52;;;;;;;;;;358057;147;860520;-57
2021/06/04 02:05:05;;;;;;;8.98;4.41;;;;;;;;;;359137;147;865635;-56
2021/06/04 02:06:07;;;;;;;8.12;4.08;;;;;;;;;;359119;147;857595;-57
2021/06/04 02:07:11;;;;;;;8.21;4.39;;;;;;;;;;357540;150;856486;-57
2021/06/04 02:08:17;;;;;;;11.59;4.44;;;;;;;;;;359123;147;865660;-57
2021/06/04 02:09:19;;;;;;;9.30;4.26;;;;;;;;;;358993;150;860127;-57
2021/06/04 02:10:26;;;;;;;9.07;4.47;;;;;;;;;;359013;147;859105;-57
2021/06/04 02:11:29;;;;;;;8.87;4.64;;;;;;;;;;358206;149;857427;-56
2021/06/04 02:12:31;;;;;;;10.06;4.82;;;;;;;;;;356078;149;857962;-57
2021/06/04 02:13:32;;;;;;;7.79;4.38;;;;;;;;;;358090;148;857316;-57
2021/06/04 02:14:36;;;;;;;10.93;4.72;;;;;;;;;;356699;148;857863;-57
2021/06/04 02:15:39;;;;;;;8.47;4.24;;;;;;;;;;358980;147;857889;-57
2021/06/04 02:16:43;;;;;;;5.99;4.20;;;;;;;;;;359543;147;859368;-56
2021/06/04 02:17:46;;;;;;;9.68;4.83;;;;;;;;;;357420;150;858987;-57
2021/06/04 02:19:01;;;;;;;9.69;4.42;;;;;;;;;;357939;148;856210;-56
2021/06/04 02:20:05;;;;;;;9.89;4.32;;;;;;;;;;357098;149;864190;-57
2021/06/04 02:21:12;;;;;;;7.94;4.49;;;;;;;;;;359848;147;856541;-58
2021/06/04 02:22:15;;;;;;;9.01;4.36;;;;;;;;;;359284;150;857070;-58
2021/06/04 02:23:24;;;;;;;7.69;4.51;;;;;;;;;;358703;150;856367;-58
2021/06/04 02:24:34;;;;;;;10.68;4.52;;;;;;;;;;358187;148;857021;-59
2021/06/04 02:25:53;;;;;;;5.73;4.48;;;;;;;;;;358479;150;856836;-57
2021/06/04 02:26:56;;;;;;;7.81;4.49;;;;;;;;;;357882;147;856348;-58
2021/06/04 02:27:58;;;;;;;8.60;4.21;;;;;;;;;;357318;150;856329;-58
2021/06/04 02:31:17;;;;;;;8.71;4.40;;;;;;;15.83;49.58;100375.84;374410;142;879604;-59
2021/06/04 02:32:28;;;;;;;8.47;4.25;;;;;;;15.74;49.54;100382.14;363314;144;857247;-58
2021/06/04 02:33:34;;;;;;;8.16;4.57;;;;;;;15.76;49.61;100380.36;362866;147;859009;-56
2021/06/04 02:34:45;;;;;;;5.48;4.35;;;;;;;15.78;49.52;100382.91;361771;145;858165;-57
2021/06/04 02:35:51;;;;;;;8.41;4.17;;;;;;;15.79;49.53;100387.24;359224;147;857434;-57
2021/06/04 02:36:56;;;;;;;7.18;4.60;;;;;;;15.81;49.62;100387.23;364206;146;858973;-58
2021/06/04 02:38:01;;;;;;;9.12;4.81;;;;;;;15.81;49.59;100382.00;365149;145;857349;-57
2021/06/04 02:39:07;;;;;;;6.36;4.60;;;;;;;15.82;49.43;100386.33;361418;148;857310;-58
2021/06/04 02:40:13;;;;;;;9.08;4.19;;;;;;;15.80;49.79;100388.96;360769;145;857689;-59
2021/06/04 02:41:21;;;;;;;11.07;4.29;;;;;;;15.83;49.55;100386.28;363125;147;857277;-59
2021/06/04 02:42:28;;;;;;;9.59;4.62;;;;;;;15.84;49.67;100389.77;363639;146;857948;-60
2021/06/04 02:43:43;;;;;;;12.73;4.79;;;;;;;15.84;49.70;100382.77;360874;145;857289;-60
2021/06/04 02:44:54;;;;;;;9.15;4.44;;;;;;;15.88;49.81;100389.67;361626;145;858957;-59
2021/06/04 02:46:19;;;;;;;9.05;4.74;;;;;;;15.89;49.94;100382.72;364533;145;857302;-57
2021/06/04 02:47:24;;;;;;;11.15;4.67;;;;;;;15.88;49.95;100383.61;361502;147;859586;-57
2021/06/04 02:48:26;;;;;;;7.29;4.31;;;;;;;15.89;50.03;100382.72;362666;145;857208;-57
2021/06/04 02:49:28;;;;;;;7.94;4.39;;;;;;;15.88;49.95;100387.06;361116;146;857469;-55
2021/06/04 02:50:49;;;;;;;8.27;4.43;;;;;;;15.88;50.25;100381.84;362985;147;857326;-58
2021/06/04 02:51:55;;;;;;;10.44;4.73;;;;;;;15.89;50.31;100380.95;358970;148;860080;-55
2021/06/04 02:53:18;;;;;;;9.13;4.37;;;;;;;15.93;50.32;100380.91;358359;150;857346;-55
2021/06/04 02:54:23;;;;;;;10.06;4.51;;;;;;;15.93;50.01;100380.91;360237;148;857453;-56
2021/06/04 02:55:29;;;;;;;8.96;4.59;;;;;;;15.94;50.08;100382.63;361577;147;857328;-55
2021/06/04 02:56:37;;;;;;;6.37;4.15;;;;;;;15.95;50.05;100384.34;359228;147;857781;-57
2021/06/04 02:57:39;;;;;;;6.77;4.09;;;;;;;15.97;50.00;100385.16;353985;150;857398;-56
2021/06/04 02:58:42;;;;;;;8.08;4.58;;;;;;;15.98;49.98;100382.50;359241;148;857141;-56
2021/06/04 02:59:45;;;;;;;9.35;4.71;;;;;;;16.01;49.96;100381.59;359597;147;866612;-57
2021/06/04 03:00:47;;;;;;;8.82;4.16;;;;;;;16.02;49.99;100383.30;359440;148;857291;-58
2021/06/04 03:01:58;;;;;;;9.44;4.50;;;;;;;16.00;50.03;100387.70;357671;147;857427;-57
2021/06/04 03:03:00;;;;;;;5.94;4.16;;;;;;;15.98;49.74;100385.11;358289;149;864955;-58
2021/06/04 03:04:03;;;;;;;9.52;4.73;;;;;;;15.99;49.94;100384.22;358025;148;860183;-57
2021/06/04 03:05:09;;;;;;;11.06;5.01;;;;;;;16.01;49.98;100385.04;363832;147;864942;-56
2021/06/04 03:06:11;;;;;;;8.90;4.96;;;;;;;16.02;49.68;100381.53;364958;147;859348;-58
2021/06/04 03:07:20;;;;;;;7.31;4.72;;;;;;;16.02;49.86;100386.76;358337;147;859144;-58
2021/06/04 03:08:22;;;;;;;9.22;4.67;;;;;;;16.04;49.89;100387.58;356659;149;858616;-57
2021/06/04 03:09:27;;;;;;;6.95;4.51;;;;;;;16.05;49.67;100391.06;358753;148;857406;-57
2021/06/04 03:10:37;;;;;;;10.31;4.66;;;;;;;16.04;49.73;100387.58;361763;147;857265;-57
2021/06/04 03:11:39;;;;;;;7.05;4.35;;;;;;;16.08;49.54;100382.28;360109;147;857321;-58
2021/06/04 03:12:42;;;;;;;11.25;4.59;;;;;;;16.12;49.58;100384.80;356255;146;857190;-58
2021/06/04 03:13:44;;;;;;;12.04;4.88;;;;;;;16.16;49.59;100381.22;357092;148;857407;-58
2021/06/04 03:14:47;;;;;;;8.57;4.80;;;;;;;16.19;49.20;100381.14;359390;147;857955;-58
2021/06/04 03:15:52;;;;;;;12.87;4.66;;;;;;;16.19;49.43;100383.75;358632;147;857391;-57
2021/06/04 03:16:55;;;;;;;9.69;4.80;;;;;;;16.23;49.31;100384.52;359121;148;858366;-57
2021/06/04 03:17:56;;;;;;;9.94;4.72;;;;;;;;;;355836;147;863249;-57
2021/06/04 03:18:59;;;;;;;10.19;4.59;;;;;;;;;;359071;147;865456;-57
2021/06/04 03:20:01;;;;;;;7.85;4.57;;;;;;;;;;359030;150;866047;-57
2021/06/04 03:21:03;;;;;;;9.49;4.33;;;;;;;;;;358174;148;865658;-58
2021/06/04 03:22:10;;;;;;;12.11;4.50;;;;;;;;;;356879;148;858008;-57
2021/06/04 03:23:13;;;;;;;8.13;4.69;;;;;;;;;;356962;148;865098;-56
2021/06/04 03:24:15;;;;;;;12.05;4.70;;;;;;;;;;359375;147;857669;-57
2021/06/04 03:25:24;;;;;;;7.75;4.58;;;;;;;;;;361227;147;857233;-57
2021/06/04 03:26:28;;;;;;;9.23;4.87;;;;;;;;;;358509;147;858443;-57
2021/06/04 03:27:29;;;;;;;5.07;4.09;;;;;;;;;;358906;148;866075;-57
2021/06/04 03:28:31;;;;;;;8.01;4.81;;;;;;;;;;357617;142;857339;-57
2021/06/04 03:29:32;;;;;;;8.84;4.89;;;;;;;;;;352838;149;857178;-57
2021/06/04 03:30:35;;;;;;;8.43;4.35;;;;;;;;;;354944;148;866567;-58
2021/06/04 03:31:38;;;;;;;8.20;4.35;;;;;;;;;;353435;152;857179;-58
2021/06/04 03:32:40;;;;;;;8.86;4.75;;;;;;;;;;353519;148;864804;-60
2021/06/04 03:33:41;;;;;;;12.96;4.77;;;;;;;;;;356151;150;857319;-57
2021/06/04 03:34:44;;;;;;;7.19;4.35;;;;;;;;;;351947;150;857674;-57
2021/06/04 03:35:45;;;;;;;11.58;4.67;;;;;;;;;;355913;148;866116;-56
2021/06/04 03:36:48;;;;;;;9.86;4.23;;;;;;;;;;355167;150;859764;-57
2021/06/04 03:37:49;;;;;;;6.31;4.37;;;;;;;;;;354890;148;867402;-56
2021/06/04 03:38:51;;;;;;;8.39;4.39;;;;;;;;;;354931;150;859252;-56
2021/06/04 03:39:53;;;;;;;9.84;4.36;;;;;;;;;;355904;148;866674;-55
2021/06/04 03:40:55;;;;;;;8.31;4.78;;;;;;;;;;352130;148;866889;-54
2021/06/04 03:41:56;;;;;;;7.57;4.53;;;;;;;;;;357531;148;857359;-56
2021/06/04 03:42:58;;;;;;;9.42;4.53;;;;;;;;;;357341;150;864970;-56
2021/06/04 03:44:00;;;;;;;6.47;4.44;;;;;;;;;;353488;149;857608;-56
2021/06/04 03:45:03;;;;;;;11.61;4.58;;;;;;;;;;349411;150;858349;-55
2021/06/04 03:46:05;;;;;;;8.62;4.56;;;;;;;;;;354314;150;859973;-56
2021/06/04 03:47:06;;;;;;;10.16;4.64;;;;;;;;;;353296;148;858691;-55
2021/06/04 03:48:08;;;;;;;7.38;4.25;;;;;;;;;;356518;147;864878;-56
2021/06/04 03:49:10;;;;;;;8.47;4.43;;;;;;;;;;352598;149;866729;-56
2021/06/04 03:50:13;;;;;;;6.60;4.45;;;;;;;;;;357308;148;857280;-57
2021/06/04 03:51:17;;;;;;;12.33;4.50;;;;;;;;;;354013;150;857330;-57
2021/06/04 03:52:21;;;;;;;6.44;4.36;;;;;;;;;;352270;150;865034;-58
2021/06/04 03:53:23;;;;;;;8.17;4.48;;;;;;;;;;352418;150;857384;-55
2021/06/04 03:54:26;;;;;;;9.93;4.39;;;;;;;;;;354208;150;857201;-56
2021/06/04 03:55:28;;;;;;;8.59;4.50;;;;;;;;;;352499;148;861060;-57
2021/06/04 03:56:30;;;;;;;15.63;4.33;;;;;;;;;;352478;150;858992;-56
2021/06/04 03:57:32;;;;;;;6.76;4.34;;;;;;;;;;352889;148;857462;-55
2021/06/04 03:58:34;;;;;;;11.41;5.03;;;;;;;;;;355302;148;859725;-59
2021/06/04 03:59:36;;;;;;;8.54;4.32;;;;;;;;;;356290;148;857804;-57
2021/06/04 04:00:42;;;;;;;7.30;4.24;;;;;;;;;;353089;148;865239;-57
2021/06/04 04:01:45;;;;;;;9.62;4.14;;;;;;;;;;354731;148;866029;-57
2021/06/04 04:02:47;;;;;;;8.10;4.15;;;;;;;;;;359348;148;858223;-58
2021/06/04 04:03:49;;;;;;;7.03;4.04;;;;;;;;;;352177;149;863611;-57
2021/06/04 04:04:55;;;;;;;7.12;3.55;;;;;;;;;;351883;150;865623;-56
2021/06/04 04:05:54;;;;;;;7.76;4.06;;;;;;;;;;354906;150;858520;-55
2021/06/04 04:06:56;;;;;;;11.48;4.09;;;;;;;;;;353623;148;864834;-58
2021/06/04 04:07:57;;;;;;;9.02;4.38;;;;;;;;;;354216;148;866643;-57
2021/06/04 04:08:59;;;;;;;7.31;3.64;;;;;;;;;;360265;148;866745;-57
2021/06/04 04:10:00;;;;;;;8.36;4.22;;;;;;;;;;356495;148;857570;-57
2021/06/04 04:11:02;;;;;;;12.43;4.43;;;;;;;;;;354633;150;857452;-56
2021/06/04 04:12:04;;;;;;;8.78;5.19;;;;;;;;;;354319;148;859169;-57
2021/06/04 04:13:06;;;;;;;7.32;3.97;;;;;;;;;;355559;148;859072;-58
2021/06/04 04:14:07;;;;;;;6.10;3.97;;;;;;;;;;354563;151;856783;-56
2021/06/04 04:15:13;;;;;;;10.16;4.45;;;;;;;;;;354713;148;857505;-56
2021/06/04 04:16:14;;;;;;;7.22;4.37;;;;;;;;;;355238;148;857341;-58
2021/06/04 04:17:16;;;;;;;7.16;4.29;;;;;;;;;;353193;150;857724;-59
2021/06/04 04:18:17;;;;;;;8.74;3.90;;;;;;;;;;354797;148;858605;-59
2021/06/04 04:19:20;;;;;;;8.23;4.19;;;;;;;;;;352037;150;859317;-62
2021/06/04 04:20:23;;;;;;;9.45;3.99;;;;;;;;;;352858;150;858642;-58
2021/06/04 04:21:25;;;;;;;9.73;4.56;;;;;;;;;;354736;148;859075;-60
2021/06/04 04:22:28;;;;;;;7.88;3.99;;;;;;;;;;353963;148;857834;-59
2021/06/04 04:23:31;;;;;;;8.82;4.40;;;;;;;;;;351257;148;867152;-59
2021/06/04 04:24:34;;;;;;;6.57;4.30;;;;;;;;;;355067;148;857400;-59
2021/06/04 04:25:36;;;;;;;11.98;4.57;;;;;;;;;;354362;150;858461;-58
2021/06/04 04:26:39;;;;;;;7.26;3.81;;;;;;;;;;355561;148;863940;-59
2021/06/04 04:27:40;;;;;;;8.91;4.15;;;;;;;;;;352471;148;858946;-59
2021/06/04 04:28:42;;;;;;;11.14;3.96;;;;;;;;;;351222;151;857417;-60
2021/06/04 04:29:44;;;;;;;9.95;3.99;;;;;;;;;;352206;148;857367;-58
2021/06/04 04:30:45;;;;;;;8.05;4.29;;;;;;;;;;358434;148;865007;-59
2021/06/04 04:31:48;;;;;;;8.09;3.94;;;;;;;;;;355320;148;866658;-58
2021/06/04 04:32:50;;;;;;;8.10;4.36;;;;;;;;;;353728;148;859185;-59
2021/06/04 04:33:52;;;;;;;8.69;3.83;;;;;;;;;;351866;148;857446;-58
2021/06/04 04:34:55;;;;;;;6.59;4.19;;;;;;;;;;351647;148;864906;-57
2021/06/04 04:35:56;;;;;;;5.68;4.05;;;;;;;;;;352092;148;857425;-59
2021/06/04 04:37:00;;;;;;;7.05;4.17;;;;;;;;;;354274;151;859112;-57
2021/06/04 04:38:02;;;;;;;7.46;3.81;;;;;;;;;;352187;148;857347;-60
2021/06/04 04:39:07;;;;;;;6.36;3.90;;;;;;;;;;354045;148;856591;-58
2021/06/04 04:40:09;;;;;;;6.13;3.90;;;;;;;;;;353611;151;856581;-57
2021/06/04 04:41:10;;;;;;;8.59;4.06;;;;;;;;;;352757;148;856979;-58
2021/06/04 04:42:13;;;;;;;4.84;3.61;;;;;;;;;;354977;148;856169;-57
2021/06/04 04:43:15;;;;;;;8.69;4.01;;;;;;;;;;353785;151;863741;-62
2021/06/04 04:44:16;;;;;;;6.05;3.74;;;;;;;;;;353975;148;856269;-58
2021/06/04 04:45:18;;;;;;;11.48;4.15;;;;;;;;;;353891;149;863752;-59
2021/06/04 04:46:21;;;;;;;5.90;4.05;;;;;;;;;;353485;148;856448;-60
2021/06/04 04:47:23;;;;;;;6.49;3.96;;;;;;;;;;353474;148;856258;-58
2021/06/04 04:48:25;;;;;;;7.96;3.85;;;;;;;;;;352400;151;856540;-59
2021/06/04 04:49:26;;;;;;;8.44;3.86;;;;;;;;;;352464;148;864174;-59
2021/06/04 04:50:29;;;;;;;6.99;3.69;;;;;;;;;;353057;151;856525;-59
2021/06/04 04:51:31;;;;;;;8.70;3.79;;;;;;;;;;352931;151;863954;-60
2021/06/04 04:52:32;;;;;;;5.63;3.73;;;;;;;;;;352904;148;856500;-60
2021/06/04 04:53:34;;;;;;;9.33;3.51;;;;;;;;;;353094;148;856369;-59
2021/06/04 04:54:36;;;;;;;8.53;3.71;;;;;;;;;;355869;149;864369;-59
2021/06/04 04:55:39;;;;;;;7.28;3.62;;;;;;;;;;355601;148;856792;-59
2021/06/04 04:56:41;;;;;;;7.55;3.58;;;;;;;;;;353320;149;856276;-58
2021/06/04 04:57:43;;;;;;;7.77;3.49;;;;;;;;;;351927;151;856373;-61
2021/06/04 04:58:45;;;;;;;6.81;3.41;;;;;;;;;;352211;151;856400;-58
2021/06/04 04:59:46;;;;;;;6.04;3.31;;;;;;;;;;351960;148;856240;-57
2021/06/04 05:00:48;;;;;;;9.69;3.51;;;;;;;;;;351682;151;856339;-58
2021/06/04 05:01:49;;;;;;;5.57;3.21;;;;;;;;;;352227;148;863770;-58
2021/06/04 05:02:51;;;;;;;6.58;3.54;;;;;;;;;;353266;151;863741;-58
2021/06/04 05:03:53;;;;;;;7.76;3.34;;;;;;;;;;352680;150;863609;-58
2021/06/04 05:04:54;;;;;;;5.89;3.14;;;;;;;;;;352058;151;856352;-59
2021/06/04 05:05:56;;;;;;;5.44;3.63;;;;;;;;;;355407;148;856234;-60
2021/06/04 05:06:57;;;;;;;5.60;3.42;;;;;;;;;;353412;151;856997;-59
2021/06/04 05:07:59;;;;;;;6.26;3.54;;;;;;;;;;350933;151;863828;-57
2021/06/04 05:09:02;;;;;;;5.19;3.35;;;;;;;;;;353224;148;856649;-59
2021/06/04 05:10:04;;;;;;;7.21;3.64;;;;;;;;;;351984;151;856752;-59
2021/06/04 05:11:06;;;;;;;8.56;3.22;;;;;;;;;;353020;149;856575;-59
2021/06/04 05:12:08;;;;;;;5.66;3.18;;;;;;;;;;352841;149;856403;-59
2021/06/04 05:13:09;;;;;;;6.25;3.52;;;;;;;;;;352493;151;863972;-58
2021/06/04 05:14:11;;;;;;;6.95;3.53;;;;;;;;;;353556;148;863803;-58
2021/06/04 05:15:14;;;;;;;5.94;3.36;;;;;;;;;;353679;151;856570;-58
2021/06/04 05:16:16;;;;;;;4.87;3.20;;;;;;;;;;352636;148;856566;-58
2021/06/04 05:17:17;;;;;;;6.64;3.74;;;;;;;;;;354102;148;856554;-58
2021/06/04 05:18:19;;;;;;;8.98;3.28;;;;;;;;;;351730;151;863777;-57
2021/06/04 05:19:21;;;;;;;5.06;3.21;;;;;;;;;;351809;151;863811;-58
2021/06/04 05:20:25;;;;;;;6.94;3.47;;;;;;;;;;352485;151;863868;-59
2021/06/04 05:21:26;;;;;;;5.61;3.98;;;;;;;;;;352508;151;863838;-58
2021/06/04 05:22:28;;;;;;;9.77;3.44;;;;;;;;;;355810;149;863839;-59
2021/06/04 05:23:29;;;;;;;14.14;3.82;;;;;;;;;;354489;148;856360;-59
2021/06/04 05:24:31;;;;;;;6.55;3.36;;;;;;;;;;353341;151;856369;-59
2021/06/04 05:25:37;;;;;;;13.21;3.11;;;;;;;;;;355435;150;856565;-59
2021/06/04 05:26:39;;;;;;;5.51;3.53;;;;;;;;;;352584;148;856920;-59
2021/06/04 05:27:40;;;;;;;5.62;3.64;;;;;;;;;;355362;148;856296;-59
2021/06/04 05:28:42;;;;;;;5.24;3.50;;;;;;;;;;355462;148;863715;-59
2021/06/04 05:29:44;;;;;;;6.59;3.51;;;;;;;;;;359972;147;864073;-57
2021/06/04 05:30:46;;;;;;;5.14;3.37;;;;;;;;;;358344;147;856538;-58
2021/06/04 05:31:48;;;;;;;7.35;3.87;;;;;;;;;;354306;147;864203;-58
2021/06/04 05:32:49;;;;;;;5.19;3.06;;;;;;;;;;360393;147;856258;-58
2021/06/04 05:33:52;;;;;;;6.40;3.41;;;;;;;;;;358920;147;864204;-58
2021/06/04 05:34:53;;;;;;;6.51;3.15;;;;;;;;;;359093;147;856280;-58
2021/06/04 05:35:55;;;;;;;7.47;3.71;;;;;;;;;;355903;147;856253;-58
2021/06/04 05:36:57;;;;;;;4.56;2.95;;;;;;;;;;358624;147;856183;-57
2021/06/04 05:37:58;;;;;;;8.29;3.24;;;;;;;;;;355485;150;857093;-57
2021/06/04 05:39:01;;;;;;;8.75;3.21;;;;;;;;;;355824;150;856427;-57
2021/06/04 05:40:10;;;;;;;9.20;3.25;;;;;;;;;;361335;147;856492;-57
2021/06/04 05:41:12;;;;;;;10.46;3.16;;;;;;;;;;354323;147;864331;-58
2021/06/04 05:42:13;;;;;;;5.65;3.44;;;;;;;;;;349557;150;856344;-57
2021/06/04 05:43:16;;;;;;;5.39;3.16;;;;;;;;;;350962;147;858106;-57
2021/06/04 05:44:19;;;;;;;7.26;3.18;;;;;;;;;;356790;147;856658;-58
2021/06/04 05:45:21;;;;;;;6.03;3.21;;;;;;;;;;359043;147;856280;-58
2021/06/04 05:46:23;;;;;;;4.83;2.93;;;;;;;;;;356176;147;857375;-56
2021/06/04 05:47:24;;;;;;;9.54;2.99;;;;;;;;;;357190;147;857257;-57
2021/06/04 05:48:26;;;;;;;5.92;2.81;;;;;;;;;;355657;150;863935;-57
2021/06/04 05:49:28;;;;;;;7.24;2.87;;;;;;;;;;357097;147;857212;-57
2021/06/04 05:50:31;;;;;;;5.27;3.24;;;;;;;;;;358874;147;856630;-58
2021/06/04 05:51:33;;;;;;;6.28;2.67;;;;;;;;;;355371;147;856324;-56
2021/06/04 05:52:35;;;;;;;4.37;2.84;;;;;;;;;;356665;147;856443;-58
2021/06/04 05:53:36;;;;;;;6.77;2.73;;;;;;;;;;359457;147;856343;-57
2021/06/04 05:54:39;;;;;;;7.25;2.67;;;;;;;;;;358931;147;856340;-57
2021/06/04 05:55:41;;;;;;;3.62;2.29;;;;;;;;;;354221;147;856328;-58
2021/06/04 05:56:43;;;;;;;7.14;2.73;;;;;;;;;;355615;147;856395;-58
2021/06/04 05:57:45;;;;;;;11.60;2.54;;;;;;;;;;356149;147;863988;-58
2021/06/04 05:58:46;;;;;;;7.59;2.33;;;;;;;;;;355054;147;856330;-58
2021/06/04 05:59:49;;;;;;;4.60;2.32;;;;;;;;;;354519;147;856285;-58